createdAt,value
2019-01-29T00:00:06.293Z,990.58
2019-01-29T00:01:06.271Z,990.57
2019-01-29T00:02:06.252Z,990.61
2019-01-29T00:03:06.235Z,990.57
2019-01-29T00:04:06.215Z,990.56
2019-01-29T00:05:06.198Z,990.56
2019-01-29T00:06:06.180Z,990.55
2019-01-29T00:07:06.163Z,990.54
2019-01-29T00:08:06.146Z,990.58
2019-01-29T00:09:06.128Z,990.56
2019-01-29T00:10:06.110Z,990.53
2019-01-29T00:11:06.092Z,990.51
2019-01-29T00:12:06.077Z,990.52
2019-01-29T00:13:06.059Z,990.53
2019-01-29T00:14:06.040Z,990.57
2019-01-29T00:15:06.022Z,990.50
2019-01-29T00:16:06.005Z,990.52
2019-01-29T00:17:05.987Z,990.53
2019-01-29T00:18:05.974Z,990.50
2019-01-29T00:19:05.952Z,990.52
2019-01-29T00:20:05.935Z,990.44
2019-01-29T00:21:05.917Z,990.37
2019-01-29T00:22:05.900Z,990.38
2019-01-29T00:23:05.883Z,990.40
2019-01-29T00:24:05.866Z,990.37
2019-01-29T00:25:05.847Z,990.36
2019-01-29T00:26:05.830Z,990.34
2019-01-29T00:27:05.812Z,990.38
2019-01-29T00:28:05.797Z,990.42
2019-01-29T00:29:05.777Z,990.41
2019-01-29T00:30:05.760Z,990.41
2019-01-29T00:31:05.743Z,990.41
2019-01-29T00:32:05.725Z,990.44
2019-01-29T00:33:05.707Z,990.46
2019-01-29T00:34:05.690Z,990.43
2019-01-29T00:35:05.672Z,990.44
2019-01-29T00:36:05.655Z,990.45
2019-01-29T00:37:05.637Z,990.42
2019-01-29T00:38:05.619Z,990.42
2019-01-29T00:39:05.603Z,990.46
2019-01-29T00:40:05.590Z,990.43
2019-01-29T00:41:05.567Z,990.45
2019-01-29T00:42:05.550Z,990.41
2019-01-29T00:43:05.534Z,990.37
2019-01-29T00:44:05.515Z,990.37
2019-01-29T00:45:05.497Z,990.40
2019-01-29T00:46:05.514Z,990.35
2019-01-29T00:47:05.462Z,990.38
2019-01-29T00:48:05.445Z,990.38
2019-01-29T00:49:05.427Z,990.36
2019-01-29T00:50:05.411Z,990.45
2019-01-29T00:51:05.393Z,990.47
2019-01-29T00:52:05.378Z,990.46
2019-01-29T00:53:05.358Z,990.52
2019-01-29T00:54:05.340Z,990.52
2019-01-29T00:55:05.323Z,990.52
2019-01-29T00:56:05.306Z,990.53
2019-01-29T00:57:05.288Z,990.59
2019-01-29T00:58:05.270Z,990.60
2019-01-29T00:59:05.255Z,990.62
2019-01-29T01:00:05.237Z,990.63
2019-01-29T01:01:05.223Z,990.60
2019-01-29T01:02:05.215Z,990.62
2019-01-29T01:03:05.185Z,990.62
2019-01-29T01:04:05.167Z,990.63
2019-01-29T01:05:05.148Z,990.61
2019-01-29T01:06:05.131Z,990.61
2019-01-29T01:07:05.114Z,990.63
2019-01-29T01:08:05.098Z,990.63
2019-01-29T01:09:05.079Z,990.64
2019-01-29T01:10:05.061Z,990.61
2019-01-29T01:11:05.043Z,990.64
2019-01-29T01:12:05.028Z,990.62
2019-01-29T01:13:05.013Z,990.60
2019-01-29T01:14:04.990Z,990.65
2019-01-29T01:15:04.975Z,990.62
2019-01-29T01:16:04.955Z,990.62
2019-01-29T01:17:04.937Z,990.61
2019-01-29T01:18:04.922Z,990.60
2019-01-29T01:19:04.901Z,990.66
2019-01-29T01:20:04.885Z,990.67
2019-01-29T01:21:04.865Z,990.67
2019-01-29T01:22:04.848Z,990.74
2019-01-29T01:23:04.830Z,990.66
2019-01-29T01:24:04.813Z,990.72
2019-01-29T01:25:04.794Z,990.74
2019-01-29T01:26:04.778Z,990.74
2019-01-29T01:27:04.759Z,990.77
2019-01-29T01:28:04.766Z,990.84
2019-01-29T01:29:04.724Z,990.79
2019-01-29T01:30:04.709Z,990.83
2019-01-29T01:31:04.690Z,990.80
2019-01-29T01:32:04.673Z,990.83
2019-01-29T01:33:04.654Z,990.80
2019-01-29T01:34:04.637Z,990.86
2019-01-29T01:35:04.620Z,990.84
2019-01-29T01:36:04.602Z,990.84
2019-01-29T01:37:04.584Z,990.89
2019-01-29T01:38:04.567Z,990.86
2019-01-29T01:39:04.552Z,990.81
2019-01-29T01:40:04.533Z,990.84
2019-01-29T01:41:04.513Z,990.88
2019-01-29T01:42:04.497Z,990.83
2019-01-29T01:43:04.478Z,990.86
2019-01-29T01:44:04.461Z,990.82
2019-01-29T01:45:04.444Z,990.84
2019-01-29T01:46:04.428Z,990.85
2019-01-29T01:47:04.411Z,990.85
2019-01-29T01:48:04.390Z,990.82
2019-01-29T01:49:04.372Z,990.88
2019-01-29T01:50:04.354Z,990.91
2019-01-29T01:51:04.337Z,990.89
2019-01-29T01:52:04.320Z,990.89
2019-01-29T01:53:04.304Z,990.88
2019-01-29T01:54:04.284Z,990.88
2019-01-29T01:55:04.267Z,990.91
2019-01-29T01:56:04.250Z,990.94
2019-01-29T01:57:04.234Z,990.92
2019-01-29T01:58:04.215Z,990.97
2019-01-29T01:59:04.197Z,990.98
2019-01-29T02:00:04.231Z,990.96
2019-01-29T02:01:04.161Z,990.98
2019-01-29T02:02:04.147Z,990.95
2019-01-29T02:03:04.128Z,990.95
2019-01-29T02:04:04.111Z,990.97
2019-01-29T02:05:04.093Z,990.96
2019-01-29T02:06:04.141Z,991.02
2019-01-29T02:07:04.058Z,991.03
2019-01-29T02:08:04.042Z,990.99
2019-01-29T02:09:04.028Z,991.00
2019-01-29T02:10:04.007Z,991.04
2019-01-29T02:11:03.992Z,991.07
2019-01-29T02:12:03.973Z,991.04
2019-01-29T02:13:03.955Z,991.08
2019-01-29T02:14:03.938Z,991.04
2019-01-29T02:15:03.921Z,991.08
2019-01-29T02:16:03.904Z,991.05
2019-01-29T02:17:03.886Z,991.07
2019-01-29T02:18:03.869Z,991.09
2019-01-29T02:19:03.858Z,991.09
2019-01-29T02:20:03.835Z,991.08
2019-01-29T02:21:03.817Z,991.10
2019-01-29T02:22:03.799Z,991.05
2019-01-29T02:23:08.003Z,991.07
2019-01-29T02:24:03.766Z,991.07
2019-01-29T02:25:03.748Z,991.07
2019-01-29T02:26:03.731Z,991.11
2019-01-29T02:27:03.716Z,991.06
2019-01-29T02:28:03.696Z,991.08
2019-01-29T02:29:03.679Z,991.10
2019-01-29T02:30:03.662Z,991.07
2019-01-29T02:31:03.648Z,991.06
2019-01-29T02:32:03.628Z,991.10
2019-01-29T02:33:03.610Z,991.10
2019-01-29T02:34:03.599Z,991.06
2019-01-29T02:35:03.576Z,991.09
2019-01-29T02:36:03.563Z,991.06
2019-01-29T02:37:03.541Z,991.11
2019-01-29T02:38:03.525Z,991.11
2019-01-29T02:39:03.507Z,991.09
2019-01-29T02:40:03.495Z,991.04
2019-01-29T02:41:03.472Z,991.10
2019-01-29T02:42:03.456Z,991.05
2019-01-29T02:43:03.438Z,991.07
2019-01-29T02:44:03.435Z,991.05
2019-01-29T02:45:03.403Z,991.02
2019-01-29T02:46:03.386Z,991.01
2019-01-29T02:47:03.370Z,991.03
2019-01-29T02:48:03.353Z,991.03
2019-01-29T02:49:03.334Z,991.00
2019-01-29T02:50:03.333Z,990.98
2019-01-29T02:51:03.303Z,991.02
2019-01-29T02:52:03.286Z,991.02
2019-01-29T02:53:03.266Z,991.01
2019-01-29T02:54:03.249Z,991.05
2019-01-29T02:55:03.237Z,990.99
2019-01-29T02:56:03.216Z,991.00
2019-01-29T02:57:03.198Z,991.00
2019-01-29T02:58:03.181Z,990.99
2019-01-29T02:59:03.165Z,991.00
2019-01-29T03:00:03.152Z,990.98
2019-01-29T03:01:03.129Z,990.95
2019-01-29T03:02:03.112Z,990.95
2019-01-29T03:03:03.098Z,990.90
2019-01-29T03:04:03.080Z,990.92
2019-01-29T03:05:03.061Z,990.94
2019-01-29T03:06:03.044Z,990.94
2019-01-29T03:07:03.026Z,990.93
2019-01-29T03:08:03.010Z,990.96
2019-01-29T03:09:02.993Z,990.96
2019-01-29T03:10:02.975Z,990.96
2019-01-29T03:11:02.958Z,990.91
2019-01-29T03:12:02.943Z,990.97
2019-01-29T03:13:02.923Z,990.94
2019-01-29T03:14:02.906Z,990.98
2019-01-29T03:15:02.890Z,990.98
2019-01-29T03:16:02.873Z,990.99
2019-01-29T03:17:02.857Z,990.99
2019-01-29T03:18:02.838Z,990.98
2019-01-29T03:19:02.821Z,991.03
2019-01-29T03:20:02.808Z,990.97
2019-01-29T03:21:02.787Z,991.01
2019-01-29T03:22:02.772Z,991.05
2019-01-29T03:23:02.753Z,991.05
2019-01-29T03:24:02.735Z,991.03
2019-01-29T03:25:02.717Z,991.03
2019-01-29T03:26:02.701Z,991.01
2019-01-29T03:27:02.683Z,991.02
2019-01-29T03:28:02.666Z,990.96
2019-01-29T03:29:02.648Z,990.98
2019-01-29T03:30:02.631Z,991.00
2019-01-29T03:31:02.627Z,990.98
2019-01-29T03:32:02.599Z,990.99
2019-01-29T03:33:02.583Z,991.01
2019-01-29T03:34:02.564Z,990.97
2019-01-29T03:35:02.571Z,991.00
2019-01-29T03:36:02.528Z,990.99
2019-01-29T03:37:02.511Z,990.99
2019-01-29T03:38:02.493Z,991.03
2019-01-29T03:39:02.476Z,991.01
2019-01-29T03:40:02.461Z,991.03
2019-01-29T03:41:02.441Z,991.00
2019-01-29T03:42:02.425Z,991.06
2019-01-29T03:43:02.412Z,991.03
2019-01-29T03:44:02.391Z,991.05
2019-01-29T03:45:02.374Z,991.06
2019-01-29T03:46:02.359Z,991.05
2019-01-29T03:47:02.339Z,991.05
2019-01-29T03:48:02.323Z,991.03
2019-01-29T03:49:02.304Z,991.03
2019-01-29T03:50:02.289Z,991.06
2019-01-29T03:51:02.272Z,991.11
2019-01-29T03:52:02.253Z,991.04
2019-01-29T03:53:02.237Z,991.02
2019-01-29T03:54:02.218Z,991.05
2019-01-29T03:55:02.201Z,991.04
2019-01-29T03:56:02.184Z,991.05
2019-01-29T03:57:02.165Z,991.07
2019-01-29T03:58:02.148Z,991.10
2019-01-29T03:59:02.133Z,991.05
2019-01-29T04:00:02.120Z,991.07
2019-01-29T04:01:02.096Z,991.06
2019-01-29T04:02:02.081Z,991.08
2019-01-29T04:03:02.061Z,991.08
2019-01-29T04:04:02.046Z,991.07
2019-01-29T04:05:02.028Z,991.02
2019-01-29T04:06:02.010Z,991.04
2019-01-29T04:07:01.994Z,991.00
2019-01-29T04:08:01.976Z,991.10
2019-01-29T04:09:01.961Z,991.02
2019-01-29T04:10:01.940Z,991.02
2019-01-29T04:11:01.923Z,991.07
2019-01-29T04:12:01.907Z,991.04
2019-01-29T04:13:01.889Z,991.03
2019-01-29T04:14:01.871Z,991.05
2019-01-29T04:15:01.855Z,991.01
2019-01-29T04:16:01.836Z,991.04
2019-01-29T04:17:01.819Z,991.07
2019-01-29T04:18:01.803Z,991.02
2019-01-29T04:19:01.784Z,991.06
2019-01-29T04:20:01.768Z,991.04
2019-01-29T04:21:01.754Z,991.09
2019-01-29T04:22:02.583Z,991.07
2019-01-29T04:23:01.725Z,991.07
2019-01-29T04:24:01.701Z,991.04
2019-01-29T04:25:01.681Z,991.04
2019-01-29T04:26:01.664Z,991.03
2019-01-29T04:27:01.647Z,991.03
2019-01-29T04:28:01.628Z,991.09
2019-01-29T04:29:01.610Z,991.13
2019-01-29T04:30:01.593Z,991.09
2019-01-29T04:31:01.575Z,991.10
2019-01-29T04:32:01.560Z,991.06
2019-01-29T04:33:01.544Z,991.12
2019-01-29T04:34:01.524Z,991.07
2019-01-29T04:35:01.508Z,991.08
2019-01-29T04:36:01.491Z,991.08
2019-01-29T04:37:01.471Z,991.07
2019-01-29T04:38:01.458Z,991.05
2019-01-29T04:39:01.437Z,991.04
2019-01-29T04:40:01.824Z,991.00
2019-01-29T04:41:01.402Z,990.98
2019-01-29T04:42:01.393Z,990.98
2019-01-29T04:43:01.375Z,990.99
2019-01-29T04:44:01.351Z,990.99
2019-01-29T04:45:01.335Z,990.94
2019-01-29T04:46:01.317Z,990.95
2019-01-29T04:47:01.302Z,990.95
2019-01-29T04:48:01.282Z,990.91
2019-01-29T04:49:01.264Z,990.90
2019-01-29T04:50:01.247Z,990.92
2019-01-29T04:51:01.231Z,990.86
2019-01-29T04:52:01.216Z,990.90
2019-01-29T04:53:01.197Z,990.87
2019-01-29T04:54:01.176Z,990.87
2019-01-29T04:55:01.160Z,990.88
2019-01-29T04:56:01.144Z,990.87
2019-01-29T04:57:01.127Z,990.88
2019-01-29T04:58:01.106Z,990.89
2019-01-29T04:59:01.088Z,990.86
2019-01-29T05:00:01.074Z,990.86
2019-01-29T05:01:01.055Z,990.86
2019-01-29T05:02:01.043Z,990.87
2019-01-29T05:03:01.021Z,990.84
2019-01-29T05:04:01.004Z,990.87
2019-01-29T05:05:00.983Z,990.85
2019-01-29T05:06:00.965Z,990.84
2019-01-29T05:07:00.948Z,990.82
2019-01-29T05:08:00.939Z,990.86
2019-01-29T05:09:00.914Z,990.83
2019-01-29T05:10:00.896Z,990.83
2019-01-29T05:11:00.878Z,990.81
2019-01-29T05:12:00.866Z,990.80
2019-01-29T05:13:00.842Z,990.79
2019-01-29T05:14:00.825Z,990.75
2019-01-29T05:15:00.809Z,990.74
2019-01-29T05:16:00.792Z,990.72
2019-01-29T05:17:00.780Z,990.70
2019-01-29T05:18:00.755Z,990.70
2019-01-29T05:19:00.737Z,990.72
2019-01-29T05:20:01.771Z,990.72
2019-01-29T05:21:00.705Z,990.73
2019-01-29T05:22:00.688Z,990.70
2019-01-29T05:23:00.669Z,990.69
2019-01-29T05:24:06.678Z,990.68
2019-01-29T05:25:00.633Z,990.70
2019-01-29T05:26:00.615Z,990.66
2019-01-29T05:27:00.598Z,990.67
2019-01-29T05:28:00.582Z,990.66
2019-01-29T05:29:00.563Z,990.65
2019-01-29T05:30:00.545Z,990.72
2019-01-29T05:31:00.529Z,990.64
2019-01-29T05:32:00.512Z,990.64
2019-01-29T05:33:00.496Z,990.65
2019-01-29T05:34:00.477Z,990.65
2019-01-29T05:35:00.458Z,990.67
2019-01-29T05:36:03.352Z,990.65
2019-01-29T05:37:00.473Z,990.60
2019-01-29T05:38:00.406Z,990.66
2019-01-29T05:39:00.392Z,990.67
2019-01-29T05:40:00.372Z,990.65
2019-01-29T05:41:00.356Z,990.65
2019-01-29T05:42:00.336Z,990.68
2019-01-29T05:43:00.319Z,990.69
2019-01-29T05:44:00.301Z,990.67
2019-01-29T05:45:00.333Z,990.69
2019-01-29T05:46:00.266Z,990.69
2019-01-29T05:47:00.249Z,990.68
2019-01-29T05:48:00.231Z,990.67
2019-01-29T05:49:00.263Z,990.69
2019-01-29T05:50:00.318Z,990.70
2019-01-29T05:51:00.281Z,990.70
2019-01-29T05:52:00.212Z,990.65
2019-01-29T05:53:01.945Z,990.66
2019-01-29T05:54:00.281Z,990.64
2019-01-29T05:55:00.247Z,990.61
2019-01-29T05:56:00.092Z,990.65
2019-01-29T05:57:00.073Z,990.60
2019-01-29T05:58:00.055Z,990.61
2019-01-29T05:59:00.038Z,990.61
2019-01-29T06:00:00.020Z,990.57
2019-01-29T06:01:00.003Z,990.59
2019-01-29T06:01:59.985Z,990.61
2019-01-29T06:02:59.968Z,990.60
2019-01-29T06:03:59.950Z,990.58
2019-01-29T06:04:59.949Z,990.57
2019-01-29T06:05:59.915Z,990.56
2019-01-29T06:06:59.899Z,990.59
2019-01-29T06:07:59.881Z,990.57
2019-01-29T06:08:59.862Z,990.56
2019-01-29T06:09:59.845Z,990.56
2019-01-29T06:10:59.830Z,990.55
2019-01-29T06:11:59.813Z,990.56
2019-01-29T06:12:59.792Z,990.55
2019-01-29T06:13:59.776Z,990.53
2019-01-29T06:14:59.770Z,990.54
2019-01-29T06:15:59.742Z,990.49
2019-01-29T06:16:59.723Z,990.53
2019-01-29T06:17:59.709Z,990.54
2019-01-29T06:18:59.693Z,990.48
2019-01-29T06:19:59.671Z,990.54
2019-01-29T06:20:59.653Z,990.56
2019-01-29T06:21:59.637Z,990.57
2019-01-29T06:22:59.624Z,990.62
2019-01-29T06:23:59.601Z,990.60
2019-01-29T06:24:59.586Z,990.62
2019-01-29T06:25:59.568Z,990.59
2019-01-29T06:26:59.549Z,990.58
2019-01-29T06:27:59.532Z,990.60
2019-01-29T06:28:59.516Z,990.61
2019-01-29T06:29:59.500Z,990.64
2019-01-29T06:30:59.480Z,990.67
2019-01-29T06:31:59.462Z,990.64
2019-01-29T06:32:59.444Z,990.64
2019-01-29T06:33:59.434Z,990.66
2019-01-29T06:34:59.415Z,990.69
2019-01-29T06:35:59.396Z,990.69
2019-01-29T06:36:59.375Z,990.70
2019-01-29T06:37:59.358Z,990.73
2019-01-29T06:38:59.341Z,990.76
2019-01-29T06:39:59.325Z,990.72
2019-01-29T06:40:59.305Z,990.77
2019-01-29T06:41:59.290Z,990.82
2019-01-29T06:42:59.271Z,990.79
2019-01-29T06:43:59.256Z,990.78
2019-01-29T06:44:59.237Z,990.83
2019-01-29T06:45:59.220Z,990.81
2019-01-29T06:46:59.203Z,990.81
2019-01-29T06:47:59.186Z,990.82
2019-01-29T06:48:59.168Z,990.77
2019-01-29T06:49:59.151Z,990.79
2019-01-29T06:50:59.134Z,990.82
2019-01-29T06:51:59.117Z,990.84
2019-01-29T06:52:59.099Z,990.78
2019-01-29T06:53:59.083Z,990.82
2019-01-29T06:54:59.068Z,990.80
2019-01-29T06:55:59.050Z,990.80
2019-01-29T06:56:59.033Z,990.80
2019-01-29T06:57:59.013Z,990.79
2019-01-29T06:58:58.997Z,990.77
2019-01-29T06:59:58.979Z,990.79
2019-01-29T07:00:58.961Z,990.80
2019-01-29T07:01:58.944Z,990.78
2019-01-29T07:02:58.927Z,990.78
2019-01-29T07:03:58.910Z,990.79
2019-01-29T07:04:58.892Z,990.80
2019-01-29T07:05:58.878Z,990.86
2019-01-29T07:06:58.859Z,990.86
2019-01-29T07:07:58.842Z,990.82
2019-01-29T07:08:58.823Z,990.85
2019-01-29T07:09:58.806Z,990.84
2019-01-29T07:10:58.790Z,990.82
2019-01-29T07:11:58.773Z,990.80
2019-01-29T07:12:58.756Z,990.80
2019-01-29T07:13:58.739Z,990.79
2019-01-29T07:14:58.722Z,990.78
2019-01-29T07:15:58.705Z,990.79
2019-01-29T07:16:58.687Z,990.75
2019-01-29T07:17:58.671Z,990.78
2019-01-29T07:18:58.653Z,990.76
2019-01-29T07:19:58.637Z,990.75
2019-01-29T07:20:58.619Z,990.77
2019-01-29T07:21:58.603Z,990.72
2019-01-29T07:22:58.586Z,990.74
2019-01-29T07:23:58.574Z,990.72
2019-01-29T07:24:58.552Z,990.70
2019-01-29T07:25:58.534Z,990.69
2019-01-29T07:26:58.518Z,990.67
2019-01-29T07:27:58.501Z,990.71
2019-01-29T07:28:58.482Z,990.68
2019-01-29T07:29:58.466Z,990.68
2019-01-29T07:30:58.452Z,990.71
2019-01-29T07:31:58.432Z,990.69
2019-01-29T07:32:58.414Z,990.69
2019-01-29T07:33:58.402Z,990.67
2019-01-29T07:34:58.382Z,990.68
2019-01-29T07:35:58.364Z,990.67
2019-01-29T07:36:58.347Z,990.67
2019-01-29T07:37:58.329Z,990.69
2019-01-29T07:38:58.312Z,990.68
2019-01-29T07:39:58.296Z,990.68
2019-01-29T07:40:58.278Z,990.68
2019-01-29T07:41:58.261Z,990.63
2019-01-29T07:42:58.247Z,990.63
2019-01-29T07:43:58.227Z,990.58
2019-01-29T07:44:58.210Z,990.56
2019-01-29T07:45:58.192Z,990.58
2019-01-29T07:46:58.176Z,990.63
2019-01-29T07:47:58.159Z,990.62
2019-01-29T07:48:58.144Z,990.64
2019-01-29T07:49:58.124Z,990.62
2019-01-29T07:50:58.108Z,990.63
2019-01-29T07:51:58.095Z,990.63
2019-01-29T07:52:58.073Z,990.58
2019-01-29T07:53:58.057Z,990.60
2019-01-29T07:54:58.040Z,990.58
2019-01-29T07:55:58.022Z,990.54
2019-01-29T07:56:58.005Z,990.56
2019-01-29T07:57:57.988Z,990.54
2019-01-29T07:58:57.971Z,990.53
2019-01-29T07:59:57.954Z,990.57
2019-01-29T08:00:57.937Z,990.55
2019-01-29T08:01:57.919Z,990.55
2019-01-29T08:02:57.902Z,990.60
2019-01-29T08:03:57.885Z,990.63
2019-01-29T08:04:57.867Z,990.60
2019-01-29T08:05:57.851Z,990.61
2019-01-29T08:06:57.834Z,990.66
2019-01-29T08:07:57.819Z,990.62
2019-01-29T08:08:57.799Z,990.63
2019-01-29T08:09:57.783Z,990.59
2019-01-29T08:10:57.766Z,990.56
2019-01-29T08:11:57.755Z,990.59
2019-01-29T08:12:57.735Z,990.61
2019-01-29T08:13:57.716Z,990.59
2019-01-29T08:14:57.699Z,990.61
2019-01-29T08:15:57.682Z,990.63
2019-01-29T08:16:57.668Z,990.59
2019-01-29T08:17:57.649Z,990.55
2019-01-29T08:18:57.632Z,990.55
2019-01-29T08:19:57.620Z,990.51
2019-01-29T08:20:57.599Z,990.50
2019-01-29T08:21:57.582Z,990.53
2019-01-29T08:22:57.565Z,990.55
2019-01-29T08:23:57.549Z,990.51
2019-01-29T08:25:01.859Z,990.54
2019-01-29T08:25:57.517Z,990.51
2019-01-29T08:26:57.498Z,990.47
2019-01-29T08:27:57.483Z,990.46
2019-01-29T08:28:57.465Z,990.46
2019-01-29T08:29:57.449Z,990.44
2019-01-29T08:30:57.433Z,990.50
2019-01-29T08:31:57.420Z,990.52
2019-01-29T08:32:57.400Z,990.53
2019-01-29T08:33:57.384Z,990.48
2019-01-29T08:34:57.367Z,990.50
2019-01-29T08:35:57.351Z,990.50
2019-01-29T08:36:57.333Z,990.53
2019-01-29T08:37:57.318Z,990.50
2019-01-29T08:38:57.300Z,990.51
2019-01-29T08:39:57.284Z,990.47
2019-01-29T08:40:57.267Z,990.51
2019-01-29T08:41:57.251Z,990.50
2019-01-29T08:42:57.236Z,990.46
2019-01-29T08:43:57.219Z,990.49
2019-01-29T08:44:57.201Z,990.47
2019-01-29T08:45:57.187Z,990.50
2019-01-29T08:46:57.170Z,990.45
2019-01-29T08:47:57.154Z,990.46
2019-01-29T08:48:57.136Z,990.39
2019-01-29T08:49:57.122Z,990.44
2019-01-29T08:50:57.103Z,990.40
2019-01-29T08:51:57.088Z,990.35
2019-01-29T08:52:57.069Z,990.42
2019-01-29T08:53:57.053Z,990.40
2019-01-29T08:54:57.036Z,990.40
2019-01-29T08:55:57.020Z,990.39
2019-01-29T08:56:57.002Z,990.34
2019-01-29T08:57:56.988Z,990.36
2019-01-29T08:58:56.970Z,990.35
2019-01-29T08:59:56.953Z,990.34
2019-01-29T09:00:56.935Z,990.36
2019-01-29T09:01:56.920Z,990.39
2019-01-29T09:02:56.952Z,990.34
2019-01-29T09:03:56.886Z,990.33
2019-01-29T09:04:56.868Z,990.32
2019-01-29T09:05:56.852Z,990.24
2019-01-29T09:06:56.837Z,990.28
2019-01-29T09:07:56.819Z,990.26
2019-01-29T09:08:56.802Z,990.26
2019-01-29T09:09:56.787Z,990.23
2019-01-29T09:10:56.770Z,990.22
2019-01-29T09:11:56.753Z,990.21
2019-01-29T09:12:56.736Z,990.21
2019-01-29T09:13:56.720Z,990.18
2019-01-29T09:14:56.708Z,990.15
2019-01-29T09:15:56.688Z,990.14
2019-01-29T09:16:56.672Z,990.17
2019-01-29T09:17:56.655Z,990.17
2019-01-29T09:18:56.640Z,990.15
2019-01-29T09:19:56.624Z,990.10
2019-01-29T09:20:56.606Z,990.10
2019-01-29T09:21:56.593Z,990.10
2019-01-29T09:22:56.575Z,990.09
2019-01-29T09:23:56.559Z,990.10
2019-01-29T09:24:56.543Z,990.09
2019-01-29T09:25:56.527Z,990.08
2019-01-29T09:26:56.512Z,990.08
2019-01-29T09:27:56.496Z,990.09
2019-01-29T09:28:56.478Z,990.10
2019-01-29T09:29:56.462Z,990.08
2019-01-29T09:30:56.511Z,990.02
2019-01-29T09:31:56.432Z,990.00
2019-01-29T09:32:56.420Z,989.97
2019-01-29T09:33:56.400Z,989.94
2019-01-29T09:34:56.383Z,989.96
2019-01-29T09:35:56.366Z,989.96
2019-01-29T09:36:56.351Z,989.92
2019-01-29T09:37:56.338Z,989.96
2019-01-29T09:38:56.318Z,989.93
2019-01-29T09:39:56.306Z,989.87
2019-01-29T09:40:56.301Z,989.86
2019-01-29T09:41:56.271Z,989.86
2019-01-29T09:42:56.256Z,989.86
2019-01-29T09:43:56.240Z,989.86
2019-01-29T09:44:56.226Z,989.90
2019-01-29T09:45:56.212Z,989.84
2019-01-29T09:46:56.195Z,989.89
2019-01-29T09:47:56.179Z,989.84
2019-01-29T09:48:56.162Z,989.83
2019-01-29T09:49:56.148Z,989.88
2019-01-29T09:50:56.133Z,989.79
2019-01-29T09:51:56.117Z,989.77
2019-01-29T09:52:56.101Z,989.75
2019-01-29T09:53:56.087Z,989.76
2019-01-29T09:54:56.073Z,989.77
2019-01-29T09:55:56.056Z,989.80
2019-01-29T09:56:56.042Z,989.82
2019-01-29T09:57:56.025Z,989.84
2019-01-29T09:58:56.012Z,989.81
2019-01-29T09:59:55.996Z,989.84
2019-01-29T10:00:55.980Z,989.80
2019-01-29T10:01:55.966Z,989.85
2019-01-29T10:03:35.627Z,989.80
2019-01-29T10:03:55.937Z,989.78
2019-01-29T10:04:55.921Z,989.77
2019-01-29T10:05:55.907Z,989.74
2019-01-29T10:06:55.893Z,989.76
2019-01-29T10:07:55.878Z,989.75
2019-01-29T10:08:55.867Z,989.74
2019-01-29T10:09:55.850Z,989.72
2019-01-29T10:10:55.834Z,989.68
2019-01-29T10:11:55.820Z,989.74
2019-01-29T10:12:55.807Z,989.71
2019-01-29T10:13:55.792Z,989.66
2019-01-29T10:14:55.777Z,989.64
2019-01-29T10:15:55.765Z,989.60
2019-01-29T10:16:55.750Z,989.59
2019-01-29T10:17:55.738Z,989.62
2019-01-29T10:18:55.726Z,989.59
2019-01-29T10:20:02.541Z,989.57
2019-01-29T10:20:55.701Z,989.61
2019-01-29T10:21:55.690Z,989.51
2019-01-29T10:22:55.679Z,989.54
2019-01-29T10:23:55.668Z,989.51
2019-01-29T10:24:55.656Z,989.54
2019-01-29T10:25:55.646Z,989.49
2019-01-29T10:26:55.636Z,989.48
2019-01-29T10:27:55.626Z,989.49
2019-01-29T10:28:55.617Z,989.47
2019-01-29T10:29:55.605Z,989.50
2019-01-29T10:30:55.597Z,989.47
2019-01-29T10:31:55.587Z,989.43
2019-01-29T10:32:55.576Z,989.42
2019-01-29T10:33:55.571Z,989.44
2019-01-29T10:34:55.562Z,989.45
2019-01-29T10:35:55.574Z,989.37
2019-01-29T10:36:55.539Z,989.41
2019-01-29T10:37:55.530Z,989.38
2019-01-29T10:38:55.528Z,989.32
2019-01-29T10:39:55.513Z,989.40
2019-01-29T10:40:55.503Z,989.34
2019-01-29T10:41:55.494Z,989.37
2019-01-29T10:42:55.486Z,989.32
2019-01-29T10:43:55.477Z,989.31
2019-01-29T10:44:55.475Z,989.24
2019-01-29T10:45:55.459Z,989.23
2019-01-29T10:46:55.450Z,989.26
2019-01-29T10:47:55.442Z,989.22
2019-01-29T10:48:55.432Z,989.18
2019-01-29T10:49:55.424Z,989.17
2019-01-29T10:50:55.415Z,989.14
2019-01-29T10:51:55.406Z,989.12
2019-01-29T10:52:55.397Z,989.10
2019-01-29T10:53:55.387Z,989.09
2019-01-29T10:54:55.379Z,989.08
2019-01-29T10:55:55.370Z,989.03
2019-01-29T10:56:55.362Z,989.01
2019-01-29T10:57:55.397Z,988.97
2019-01-29T10:58:55.341Z,988.95
2019-01-29T10:59:55.333Z,988.96
2019-01-29T11:00:55.322Z,988.98
2019-01-29T11:01:55.313Z,988.92
2019-01-29T11:02:55.304Z,988.91
2019-01-29T11:03:55.294Z,988.87
2019-01-29T11:04:55.285Z,988.91
2019-01-29T11:05:55.276Z,988.86
2019-01-29T11:06:55.267Z,988.81
2019-01-29T11:07:55.257Z,988.80
2019-01-29T11:08:55.251Z,988.78
2019-01-29T11:09:55.239Z,988.78
2019-01-29T11:10:55.231Z,988.82
2019-01-29T11:11:55.221Z,988.80
2019-01-29T11:12:55.211Z,988.76
2019-01-29T11:13:55.203Z,988.75
2019-01-29T11:14:55.196Z,988.73
2019-01-29T11:15:55.185Z,988.68
2019-01-29T11:16:55.174Z,988.70
2019-01-29T11:17:55.167Z,988.65
2019-01-29T11:19:02.936Z,988.63
2019-01-29T11:19:55.151Z,988.55
2019-01-29T11:20:55.138Z,988.58
2019-01-29T11:21:55.940Z,988.53
2019-01-29T11:22:55.117Z,988.54
2019-01-29T11:23:55.107Z,988.55
2019-01-29T11:24:55.097Z,988.55
2019-01-29T11:25:56.011Z,988.51
2019-01-29T11:26:55.077Z,988.45
2019-01-29T11:27:55.066Z,988.43
2019-01-29T11:28:55.055Z,988.44
2019-01-29T11:29:55.043Z,988.37
2019-01-29T11:30:55.033Z,988.40
2019-01-29T11:31:55.021Z,988.36
2019-01-29T11:32:55.008Z,988.35
2019-01-29T11:33:55.001Z,988.34
2019-01-29T11:34:54.987Z,988.36
2019-01-29T11:35:54.976Z,988.32
2019-01-29T11:36:54.964Z,988.27
2019-01-29T11:37:54.957Z,988.28
2019-01-29T11:38:54.943Z,988.31
2019-01-29T11:39:54.931Z,988.19
2019-01-29T11:40:54.922Z,988.19
2019-01-29T11:41:54.909Z,988.19
2019-01-29T11:42:54.898Z,988.18
2019-01-29T11:43:54.888Z,988.16
2019-01-29T11:44:54.876Z,988.19
2019-01-29T11:45:54.871Z,988.15
2019-01-29T11:46:54.857Z,988.10
2019-01-29T11:47:54.844Z,988.16
2019-01-29T11:48:54.833Z,988.11
2019-01-29T11:49:54.874Z,988.10
2019-01-29T11:50:54.816Z,988.08
2019-01-29T11:51:54.801Z,988.08
2019-01-29T11:52:54.789Z,988.05
2019-01-29T11:53:54.778Z,988.07
2019-01-29T11:54:54.767Z,987.97
2019-01-29T11:55:54.756Z,988.04
2019-01-29T11:56:54.744Z,988.00
2019-01-29T11:57:54.734Z,987.93
2019-01-29T11:58:54.723Z,987.91
2019-01-29T11:59:54.712Z,987.87
2019-01-29T12:00:54.700Z,987.96
2019-01-29T12:01:54.689Z,987.93
2019-01-29T12:02:54.680Z,987.93
2019-01-29T12:03:54.666Z,988.01
2019-01-29T12:04:54.654Z,987.93
2019-01-29T12:05:54.642Z,987.90
2019-01-29T12:06:54.633Z,987.88
2019-01-29T12:07:54.623Z,987.87
2019-01-29T12:08:54.609Z,987.89
2019-01-29T12:09:56.399Z,987.90
2019-01-29T12:10:54.582Z,987.78
2019-01-29T12:11:54.570Z,987.81
2019-01-29T12:12:54.560Z,987.85
2019-01-29T12:13:54.544Z,987.75
2019-01-29T12:14:54.532Z,987.80
2019-01-29T12:15:54.519Z,987.75
2019-01-29T12:16:54.506Z,987.74
2019-01-29T12:17:54.493Z,987.75
2019-01-29T12:18:54.481Z,987.78
2019-01-29T12:19:54.469Z,987.76
2019-01-29T12:20:54.456Z,987.82
2019-01-29T12:21:54.444Z,987.70
2019-01-29T12:22:54.433Z,987.74
2019-01-29T12:23:54.422Z,987.76
2019-01-29T12:24:54.413Z,987.69
2019-01-29T12:25:54.398Z,987.68
2019-01-29T12:26:54.386Z,987.66
2019-01-29T12:27:54.374Z,987.73